Address 0xaf64c8afa2f847fc30fe5a8966858868492c9871

Overview

Balance:
0.08495036 BNB
My Name Tag:
Not Available

Txn Hash
Block
From
To
Value [Txn Fee]
0x889f1c842fdf98bf0cb464e5d2fe6c2e1b29227d7da745e26ee89952d7e896d495513122021-06-08 11:20:2358 days 2 hrs ago0xaf64c8afa2f847fc30fe5a8966858868492c9871OUT 0xdda1cd8639c7baecf6c52a2577982974d965b1930 BNB0.00163588
0x8f898e6b940bbf9e698d093560c1b86db6bd670c9e1b7d85fa56c17bff2956c995475482021-06-08 8:12:1158 days 5 hrs ago0xaf64c8afa2f847fc30fe5a8966858868492c9871OUT 0xdc0c6f8fa90ec8256b11ecaaf33e873cadd372770 BNB0.00127075
0x31814866f1ac2e9dcc5d28d5aa9040033a1bedfab3c3171820481c5bf1f68da195475302021-06-08 8:11:1758 days 5 hrs ago0xaf64c8afa2f847fc30fe5a8966858868492c9871OUT 0xdc0c6f8fa90ec8256b11ecaaf33e873cadd372770 BNB0.00114076
0x4f3a92f6edf49aa37b0c5375d289f902547029faeb34a41a642e5c111dba772a95460252021-06-08 6:56:0258 days 6 hrs ago0xaf64c8afa2f847fc30fe5a8966858868492c9871OUT 0xe893fc43cd8c9542a5fd4a61d1c0dab2057189d70 BNB0.00082075
0x4ce439db14d3f6e4bbcea6dde0d95996ddbf2ca0364779e5ab9bea3d6c6c557a95460172021-06-08 6:55:3858 days 6 hrs ago0xaf64c8afa2f847fc30fe5a8966858868492c9871OUT 0xe893fc43cd8c9542a5fd4a61d1c0dab2057189d70 BNB0.00114076
0xa51d0c66e379bcd2cc7198bea4635ff9ce0d2a39fc22099970bae74edebeded495458922021-06-08 6:49:2358 days 6 hrs ago0xaf64c8afa2f847fc30fe5a8966858868492c9871OUT 0x4f4a28d13876b0eb39123e946321dd92a79f5ab90 BNB0.00127116
0x1bcb14789184285c918c2ca036bc9f24a3a21c46200369b8cfd8f420048ce87695458882021-06-08 6:49:1158 days 6 hrs ago0xaf64c8afa2f847fc30fe5a8966858868492c9871OUT 0x4f4a28d13876b0eb39123e946321dd92a79f5ab90 BNB0.00114105
0x79a629ebc46af35de41e7d27111df2cb6acbeeb36257b29de49e4c6a4386d00695457852021-06-08 6:44:0258 days 6 hrs ago0xaf64c8afa2f847fc30fe5a8966858868492c9871OUT 0x2ffd0efc35929706d78deb0c6cd8a1c33954a2620 BNB0.00127116
0x426062639f15d338c7d656d37a9bb8d04886ca85b153f74ae8ea3fe858b9239a95457532021-06-08 6:42:2658 days 6 hrs ago0xaf64c8afa2f847fc30fe5a8966858868492c9871OUT 0x2ffd0efc35929706d78deb0c6cd8a1c33954a2620 BNB0.00114105
0x74a6ddc0d38decf417338b163a8cc061204427c4d7284d0b94fc916dbf40b7a795454752021-06-08 6:28:3258 days 7 hrs ago0xaf64c8afa2f847fc30fe5a8966858868492c9871OUT 0x52de79a38f8e0c0a19c15aef9af2a18f18659b320 BNB0.00127116
0x66b7164548f7f31946eb906ddaac669deb6e62e497e836740153c3c37e3a2cb995452872021-06-08 6:19:0858 days 7 hrs ago0xaf64c8afa2f847fc30fe5a8966858868492c9871OUT 0x52de79a38f8e0c0a19c15aef9af2a18f18659b320 BNB0.00114105
0x7321f000d0f6294b5ee586ef21b16025761c17eee46e9ffe794ceca99a4d774c95164152021-06-07 6:15:0659 days 7 hrs ago0xaf64c8afa2f847fc30fe5a8966858868492c9871OUT 0x6e446157460cac7cb404f756391c1e62583ef47e0 BNB0.00114076
0x9bbd4cd3b49edfb9c4c2661c6a627d60c4c9fd40c09b12247660e3fd1f2681d094089052021-06-03 12:39:2063 days 1 hr ago0xaf64c8afa2f847fc30fe5a8966858868492c9871OUT0x50966810a133cdf7083bde254954a8d61041d09b1 BNB0.00021
0xa03a913645f142fd3c3a22dc2ab174a805d9b653e710c789d54a935313f6b34994087052021-06-03 12:29:2063 days 1 hr ago0xaa25aa7a19f9c426e07dee59b12f944f4d9f1dd3 IN 0xaf64c8afa2f847fc30fe5a8966858868492c98711 BNB0.000378
0xc79614f7d92a1cd53ee2f720255fe467f95874640a0f76eedd4caaba7181f6b894015372021-06-03 6:29:2763 days 7 hrs ago0xaf64c8afa2f847fc30fe5a8966858868492c9871OUT 0x86da3d5a375d4ea917438a7278bf5446723158e60 BNB0.00134222
0x82a68b775ce33d6adc98910ebea9bb4521bc787a74756fefed66c588065165a294015302021-06-03 6:29:0663 days 7 hrs ago0xaf64c8afa2f847fc30fe5a8966858868492c9871OUT 0x86da3d5a375d4ea917438a7278bf5446723158e60 BNB0.00113993
0xe2db6df2e641e26c36fd17c600e885f7a55c41f3ba3d0b2bfaa1afcd07d78fd294014902021-06-03 6:27:0663 days 7 hrs ago0xaf64c8afa2f847fc30fe5a8966858868492c9871OUT 0x86da3d5a375d4ea917438a7278bf5446723158e60 BNB0.00054137
0xfffb055b91826695a8d971f82fb37b867e00494776522f13f24cfb92443085d393518052021-06-01 13:02:5165 days 36 mins ago0xaf64c8afa2f847fc30fe5a8966858868492c9871OUT 0xd350ba16ec5c682f65ca3435ed08c3f1ba7d9c150 BNB0.00114038
0x51a45e3a09e84e619767f9a9f733ec616c303649d31cfd24c59943d5b41f4ec786104362021-05-06 17:24:5690 days 20 hrs ago0xaf64c8afa2f847fc30fe5a8966858868492c9871OUT 0xb0dd2276d7e07f149a004e6e9e290f9a72d33e860.1 BNB0.00429949
0x8b8852a6f63fd2c5b592293bbb233a2d3a9546140437f406158752e672dcee2486103052021-05-06 17:18:2390 days 20 hrs ago0xaf64c8afa2f847fc30fe5a8966858868492c9871OUT 0xe79ff35fd4f1e1907989acce97dd1814a5a330300.1 BNB0.00418014
0x090f77d31675cd2633308a61dc742aa36df69206e6b55b1ce1a7f4395e94010486078882021-05-06 15:17:2190 days 22 hrs ago0xaf64c8afa2f847fc30fe5a8966858868492c9871OUT 0x6ab8531fa5bd38e15f755cb744094bbb90eead310.1 BNB0.00579949
0x51477425d658b5103524fe1ed0b1bae5e8b423b47a42e5e40919fb077c646afb86077532021-05-06 15:10:1290 days 22 hrs ago0xaf64c8afa2f847fc30fe5a8966858868492c9871OUT 0x80778d77a7fb5aaa83345511013daf0ee0d701de0.1 BNB0.00264262
0xc8018effd36bd88db11de46ab5b7cde83c66decc74b190fc2975ea60b976885586077372021-05-06 15:09:2490 days 22 hrs ago0x29c870425bbf309e51a608d2c633e87f6d9d5504 IN 0xaf64c8afa2f847fc30fe5a8966858868492c98710.5 BNB0.00021
0xca658a522a9447477fab43383374e8e03147bf80219ab206bc3caee62408bf4b86071452021-05-06 14:39:4890 days 22 hrs ago0xaf64c8afa2f847fc30fe5a8966858868492c9871OUT 0x27ff7a08f982bfc84f9a6cae841a549e81b2eb2b0.1 BNB0.00332814
0x17ad6f2b6161dfa38333038a162392b5769e798765cbc81ba28b6b56ca105bbf86052822021-05-06 13:06:3991 days 32 mins ago0xaf64c8afa2f847fc30fe5a8966858868492c9871OUT 0xd4eb1baa596d64c8bdc85f7bb2879999657130ea0.1 BNB0.00443265
[ Download CSV Export 
Latest 3 internal transactions
Parent Txn Hash Block From To Value
0x1076dcb9e65b2851413e5b5ec4fded42f1ce23480936543f18aa82326ef0c15085664912021-05-05 4:46:5992 days 8 hrs ago 0x3629a5e124923303567156a3e139f775fe2751670xaf64c8afa2f847fc30fe5a8966858868492c98710.1 BNB
0x0773cdde2bd1dcae844fd631a46ffd3d3862ecb967c458b7c407e453a7a8a42d85664522021-05-05 4:45:0292 days 8 hrs ago 0x3629a5e124923303567156a3e139f775fe2751670xaf64c8afa2f847fc30fe5a8966858868492c98710 BNB
0x0d43e0cacbde3464d45f66856aa6b1a62c80566240ab8cf448af25c9c46ce83d85661262021-05-05 4:28:4492 days 9 hrs ago 0xa5ce0550adcab8fc9a768b611e72461969a90d360xaf64c8afa2f847fc30fe5a8966858868492c98710 BNB
[ Download CSV Export 
Loading

Contract Name:
0 BNB

Compiler Version
0

Optimization Enabled:
0 BNB

Other Settings:
-NA-
Block Transaction Gas Used Reward
Age Block Fee Address BC Fee Address Voting Power Jailed Incoming
Block Uncle Number Difficulty Gas Used Reward
Loading